.
WxDataArchive / Data Records for 2010-06-25
2010-06-24 June 2010 2010-06-26

Data Records for Friday, 25 June 2010

Time	Temp	Chill	HIndex	Humid	Dewpt	 Wind 	HiWind	WindDir	Rain 	Barom 
-----	----	-----	------	-----	-----	------	------	-------	-----	----- 
00:00	68.4	68.4	68.4	78	61.3	0	0	---	0.00	30.064 
00:05	68.1	68.1	68.1	78	61.0	0	0	---	0.00	30.064 
00:10	67.9	67.9	67.9	79	61.1	0	0	---	0.00	30.064 
00:15	67.6	67.6	67.6	80	61.2	0	0	---	0.00	30.063 
00:20	67.4	67.4	67.4	81	61.4	0	0	---	0.00	30.063 
00:25	67.1	67.1	67.1	82	61.4	0	0	---	0.00	30.063 
00:30	66.9	66.9	66.9	82	61.2	0	0	---	0.00	30.062 
00:35	66.8	66.8	66.8	83	61.5	0	0	---	0.00	30.062 
00:40	66.4	66.4	66.4	83	61.1	0	0	---	0.00	30.062 
00:45	66.1	66.1	66.1	84	61.1	0	0	---	0.00	30.063 
00:50	66.0	66.0	66.0	84	61.0	0	0	---	0.00	30.063 
00:55	65.6	65.6	65.6	85	61.0	0	0	---	0.00	30.063 
01:00	65.3	65.3	65.3	86	61.0	0	0	---	0.00	30.061 
01:05	65.2	65.2	65.2	87	61.2	0	0	---	0.00	30.061 
01:10	65.2	65.2	65.2	87	61.2	0	0	---	0.00	30.061 
01:15	65.2	65.2	65.2	87	61.2	0	0	---	0.00	30.063 
01:20	65.0	65.0	65.0	87	61.0	0	0	---	0.00	30.063 
01:25	65.0	65.0	65.0	87	61.0	0	0	---	0.00	30.063 
01:30	64.8	64.8	64.8	87	60.8	0	0	---	0.00	30.061 
01:35	64.8	64.8	64.8	87	60.8	0	0	---	0.00	30.061 
01:40	64.8	64.8	64.8	87	60.8	0	0	---	0.00	30.061 
01:45	64.7	64.7	64.7	87	60.7	0	0	---	0.00	30.051 
01:50	64.7	64.7	64.7	87	60.7	0	0	---	0.00	30.051 
01:55	64.5	64.5	64.5	87	60.5	0	0	---	0.00	30.051 
02:00	64.5	64.5	64.5	88	60.9	0	0	---	0.00	30.050 
02:05	64.3	64.3	64.3	88	60.7	0	0	---	0.00	30.050 
02:10	64.3	64.3	64.3	88	60.7	0	0	---	0.00	30.050 
02:15	64.2	64.2	64.2	88	60.6	0	0	---	0.00	30.049 
02:20	64.2	64.2	64.2	88	60.6	0	0	---	0.00	30.049 
02:25	64.2	64.2	64.2	88	60.6	0	0	---	0.00	30.049 
02:30	64.0	64.0	64.0	88	60.4	0	0	---	0.00	30.048 
02:35	64.0	64.0	64.0	88	60.4	0	0	---	0.00	30.048 
02:40	63.9	63.9	63.9	88	60.3	0	0	---	0.00	30.048 
02:45	63.9	63.9	63.9	88	60.3	0	0	---	0.00	30.051 
02:50	63.7	63.7	63.7	89	60.4	0	0	---	0.00	30.051 
02:55	63.5	63.5	63.5	89	60.2	0	0	---	0.00	30.051 
03:00	63.4	63.4	63.4	89	60.1	0	0	---	0.00	30.051 
03:05	63.2	63.2	63.2	89	59.9	0	0	---	0.00	30.051 
03:10	63.1	63.1	63.1	89	59.8	0	0	---	0.00	30.051 
03:15	62.9	62.9	62.9	89	59.6	0	0	---	0.00	30.060 
03:20	62.7	62.7	62.7	89	59.4	0	0	---	0.00	30.060 
03:25	62.6	62.6	62.6	89	59.3	0	0	---	0.00	30.060 
03:30	62.4	62.4	62.4	89	59.1	0	0	---	0.00	30.064 
03:35	62.3	62.3	62.3	90	59.3	0	0	---	0.00	30.064 
03:40	62.1	62.1	62.1	90	59.1	0	0	---	0.00	30.064 
03:45	62.0	62.0	62.0	90	59.0	0	0	---	0.00	30.064 
03:50	61.8	61.8	61.8	90	58.8	0	0	---	0.00	30.064 
03:55	61.6	61.6	61.6	91	58.9	0	0	---	0.00	30.064 
04:00	61.3	61.3	61.3	91	58.6	0	0	---	0.00	30.064 
04:05	61.3	61.3	61.3	91	58.6	0	0	---	0.00	30.064 
04:10	61.2	61.2	61.2	91	58.5	0	0	---	0.00	30.064 
04:15	61.0	61.0	61.0	92	58.7	0	0	---	0.00	30.072 
04:20	60.9	60.9	60.9	92	58.6	0	0	---	0.00	30.072 
04:25	60.7	60.7	60.7	92	58.4	0	0	---	0.00	30.072 
04:30	60.7	60.7	60.7	92	58.4	0	0	---	0.00	30.074 
04:35	60.5	60.5	60.5	92	58.2	0	0	---	0.00	30.074 
04:40	60.4	60.4	60.4	92	58.1	0	0	---	0.00	30.074 
04:45	60.2	60.2	60.2	92	57.9	0	0	---	0.00	30.079 
04:50	60.2	60.2	60.2	92	57.9	0	0	---	0.00	30.079 
04:55	60.1	60.1	60.1	93	58.1	0	0	---	0.00	30.079 
05:00	60.1	60.1	60.1	93	58.1	0	0	---	0.00	30.079 
05:05	59.9	59.9	59.9	93	57.9	0	0	---	0.00	30.079 
05:10	59.9	59.9	59.9	93	57.9	0	0	---	0.00	30.079 
05:15	59.8	59.8	59.8	93	57.8	0	0	---	0.00	30.083 
05:20	59.6	59.6	59.6	93	57.6	0	0	---	0.00	30.083 
05:25	59.6	59.6	59.6	93	57.6	0	0	---	0.00	30.083 
05:30	59.5	59.5	59.5	93	57.5	0	0	---	0.00	30.088 
05:35	59.3	59.3	59.3	94	57.6	0	0	---	0.00	30.088 
05:40	59.3	59.3	59.3	94	57.6	0	0	---	0.00	30.088 
05:45	59.3	59.3	59.3	94	57.6	0	0	---	0.00	30.096 
05:50	59.2	59.2	59.2	94	57.5	0	0	---	0.00	30.096 
05:55	59.2	59.2	59.2	94	57.5	0	0	---	0.00	30.096 
06:00	59.0	59.0	59.0	94	57.3	0	0	---	0.00	30.099 
06:05	59.0	59.0	59.0	94	57.3	0	0	---	0.00	30.099 
06:10	59.0	59.0	59.0	94	57.3	0	0	---	0.00	30.099 
06:15	59.0	59.0	59.0	94	57.3	0	0	---	0.00	30.100 
06:20	59.0	59.0	59.0	94	57.3	0	0	---	0.00	30.100 
06:25	58.9	58.9	58.9	94	57.2	0	0	---	0.00	30.100 
06:30	58.9	58.9	58.9	94	57.2	0	0	---	0.00	30.106 
06:35	58.9	58.9	58.9	94	57.2	0	0	---	0.00	30.106 
06:40	58.9	58.9	58.9	94	57.2	0	1	158	0.00	30.106 
06:45	58.9	58.9	58.9	95	57.5	0	0	---	0.00	30.110 
06:50	59.0	59.0	59.0	95	57.6	0	0	---	0.00	30.110 
06:55	59.2	59.2	59.2	95	57.8	0	0	---	0.00	30.110 
07:00	59.3	59.3	59.3	95	57.9	0	0	---	0.00	30.112 
07:05	59.6	59.6	59.6	95	58.2	0	0	---	0.00	30.112 
07:10	59.9	59.9	59.9	95	58.5	0	0	---	0.00	30.112 
07:15	60.4	60.4	60.4	96	59.3	0	0	---	0.00	30.115 
07:20	60.9	60.9	60.9	96	59.7	0	0	---	0.00	30.115 
07:25	61.3	61.3	61.3	96	60.1	0	2	22	0.00	30.115 
07:30	62.0	62.0	62.0	96	60.8	0	1	22	0.00	30.116 
07:35	62.4	62.4	62.4	96	61.2	0	2	22	0.00	30.116 
07:40	63.1	63.1	63.1	95	61.6	0	1	22	0.00	30.116 
07:45	63.7	63.7	63.7	93	61.6	0	2	22	0.00	30.118 
07:50	64.2	64.2	64.2	91	61.5	1	3	45	0.00	30.118 
07:55	64.8	64.8	64.8	88	61.2	0	3	45	0.00	30.118 
08:00	65.5	65.5	65.5	87	61.5	0	2	45	0.00	30.114 
08:05	66.0	66.0	66.0	84	61.0	1	4	45	0.00	30.114 
08:10	66.4	66.4	66.4	82	60.7	2	4	112	0.00	30.114 
08:15	66.9	66.9	66.9	80	60.5	1	2	112	0.00	30.121 
08:20	67.3	67.3	67.3	77	59.8	2	7	68	0.00	30.121 
08:25	67.6	67.6	67.6	75	59.4	2	5	90	0.00	30.121 
08:30	68.1	68.1	68.1	74	59.5	1	5	90	0.00	30.123 
08:35	68.3	68.3	68.3	73	59.3	2	4	90	0.00	30.123 
08:40	68.6	68.6	68.6	72	59.2	1	4	90	0.00	30.123 
08:45	68.9	68.9	68.9	69	58.3	1	4	112	0.00	30.119 
08:50	69.3	69.3	69.3	65	57.0	2	5	112	0.00	30.119 
08:55	69.6	69.6	69.6	65	57.3	1	3	112	0.00	30.119 
09:00	69.8	69.8	69.8	64	57.1	2	5	112	0.00	30.116 
09:05	70.3	70.3	70.3	63	57.1	0	2	112	0.00	30.116 
09:10	70.6	70.6	70.6	59	55.6	2	4	112	0.00	30.116 
09:15	70.6	70.6	70.6	58	55.1	2	4	90	0.00	30.117 
09:20	70.4	70.4	70.4	57	54.4	2	5	68	0.00	30.117 
09:25	70.8	70.8	70.8	58	55.3	1	3	68	0.00	30.117 
09:30	71.5	71.5	71.5	58	55.9	1	3	68	0.00	30.118 
09:35	72.1	72.1	72.1	57	56.0	1	4	90	0.00	30.118 
09:40	72.3	72.3	72.3	53	54.2	1	4	90	0.00	30.118 
09:45	72.1	72.1	72.1	54	54.5	3	7	112	0.00	30.121 
09:50	72.1	72.1	72.1	57	56.0	2	5	68	0.00	30.121 
09:55	72.5	72.5	72.5	57	56.4	1	5	90	0.00	30.121 
10:00	73.0	73.0	73.0	54	55.4	1	4	90	0.00	30.118 
10:05	73.3	73.3	73.3	59	58.1	1	4	90	0.00	30.118 
10:10	73.7	73.7	73.7	54	56.0	1	3	90	0.00	30.118 
10:15	74.2	74.2	74.2	53	56.0	1	3	90	0.00	30.119 
10:20	74.4	74.4	74.4	54	56.7	1	5	90	0.00	30.119 
10:25	74.6	74.6	74.6	50	54.7	1	4	112	0.00	30.119 
10:30	75.1	75.1	77.6	54	57.3	0	2	90	0.00	30.113 
10:35	75.4	75.4	77.8	51	56.0	1	3	90	0.00	30.113 
10:40	75.6	75.6	77.8	56	58.8	0	1	90	0.00	30.113 
10:45	75.8	75.8	78.0	49	55.3	1	4	90	0.00	30.120 
10:50	75.8	75.8	78.0	52	56.9	2	6	90	0.00	30.120 
10:55	75.8	75.8	78.0	52	56.9	1	4	112	0.00	30.120 
11:00	76.0	76.0	78.1	50	56.0	0	2	112	0.00	30.119 
11:05	76.1	76.1	78.1	48	55.0	1	3	112	0.00	30.119 
11:10	76.3	76.3	78.2	49	55.7	1	3	112	0.00	30.119 
11:15	76.7	76.7	78.4	50	56.6	1	2	112	0.00	30.123 
11:20	76.5	76.5	78.3	47	54.7	0	1	112	0.00	30.123 
11:25	75.6	75.6	77.9	48	54.5	0	2	112	0.00	30.123 
11:30	75.6	75.6	77.9	54	57.8	0	1	112	0.00	30.127 
11:35	76.3	76.3	78.3	55	58.9	0	2	112	0.00	30.127 
11:40	76.8	76.8	78.5	51	57.3	0	2	112	0.00	30.127 
11:45	77.6	77.6	79.0	51	58.0	0	1	112	0.00	30.125 
11:50	78.1	78.1	79.1	46	55.6	1	3	112	0.00	30.125 
11:55	78.1	78.1	79.0	45	55.0	1	3	112	0.00	30.125 
12:00	78.1	78.1	79.2	47	56.2	1	3	112	0.00	30.120 
12:05	77.6	77.6	78.7	44	53.9	1	3	112	0.00	30.120 
12:10	77.6	77.6	78.9	49	56.9	0	2	112	0.00	30.120 
12:15	77.0	77.0	78.5	48	55.8	1	2	112	0.00	30.117 
12:20	77.0	77.0	78.6	51	57.5	1	2	112	0.00	30.117 
12:25	77.6	77.6	78.8	47	55.8	0	2	112	0.00	30.117 
12:30	77.7	77.7	78.9	46	55.2	1	2	180	0.00	30.112 
12:35	77.6	77.6	78.8	46	55.2	0	1	180	0.00	30.112 
12:40	77.4	77.4	78.7	47	55.6	0	1	180	0.00	30.112 
12:45	77.4	77.4	78.7	46	55.0	0	2	202	0.00	30.112 
12:50	77.9	77.9	79.1	48	56.6	0	2	180	0.00	30.112 
12:55	78.6	78.6	79.5	48	57.2	0	1	180	0.00	30.112 
13:00	79.0	79.0	79.6	44	55.2	0	1	180	0.00	30.110 
13:05	79.8	79.8	80.4	47	57.8	0	5	180	0.00	30.110 
13:10	79.8	79.8	80.0	42	54.6	1	4	68	0.00	30.110 
13:15	79.2	79.2	79.8	45	56.0	1	4	112	0.00	30.108 
13:20	79.2	79.2	79.9	47	57.2	0	2	112	0.00	30.108 
13:25	79.4	79.4	80.1	47	57.4	1	3	112	0.00	30.108 
13:30	79.8	79.8	80.1	44	55.9	0	1	112	0.00	30.108 
13:35	79.9	79.9	79.9	40	53.4	1	2	112	0.00	30.108 
13:40	80.3	80.3	80.1	40	53.8	0	1	112	0.00	30.108 
13:45	80.3	80.3	80.2	41	54.4	1	3	112	0.00	30.107 
13:50	80.5	80.5	80.6	43	55.9	1	3	112	0.00	30.107 
13:55	80.5	80.5	80.0	37	51.8	1	3	112	0.00	30.107 
14:00	80.7	80.7	80.3	39	53.4	1	3	112	0.00	30.095 
14:05	80.7	80.7	80.4	40	54.1	1	3	112	0.00	30.095 
14:10	81.2	81.2	80.8	40	54.6	1	3	292	0.00	30.095 
14:15	81.6	81.6	81.6	44	57.5	0	1	292	0.00	30.093 
14:20	81.8	81.8	81.0	37	53.0	0	2	292	0.00	30.093 
14:25	81.6	81.6	80.5	34	50.5	0	1	292	0.00	30.093 
14:30	81.2	81.2	80.1	32	48.5	1	2	292	0.00	30.090 
14:35	81.4	81.4	80.6	36	51.9	0	1	158	0.00	30.090 
14:40	81.8	81.8	81.2	39	54.4	0	1	158	0.00	30.090 
14:45	81.8	81.8	81.0	37	53.0	1	2	158	0.00	30.080 
14:50	82.0	82.0	81.6	41	55.9	1	3	158	0.00	30.080 
14:55	82.4	82.4	81.9	41	56.3	0	1	158	0.00	30.080 
15:00	82.6	82.6	81.8	39	55.1	0	1	158	0.00	30.075 
15:05	82.8	82.8	82.0	39	55.3	0	2	158	0.00	30.075 
15:10	82.2	82.2	81.2	36	52.6	1	2	158	0.00	30.075 
15:15	82.2	82.2	81.3	37	53.3	0	1	0	0.00	30.075 
15:20	82.4	82.4	81.6	38	54.2	0	1	0	0.00	30.075 
15:25	82.6	82.6	82.0	40	55.8	0	1	0	0.00	30.075 
15:30	82.6	82.6	81.8	39	55.1	0	1	0	0.00	30.064 
15:35	82.4	82.4	81.4	37	53.5	0	2	0	0.00	30.064 
15:40	82.4	82.4	81.2	35	52.0	0	2	0	0.00	30.064 
15:45	82.6	82.6	81.7	38	54.4	0	2	0	0.00	30.060 
15:50	82.8	82.8	82.0	39	55.3	0	1	0	0.00	30.060 
15:55	82.6	82.6	81.8	39	55.1	0	1	0	0.00	30.060 
16:00	82.6	82.6	82.2	42	57.2	1	3	0	0.00	30.053 
16:05	82.8	82.8	82.3	41	56.7	1	3	45	0.00	30.053 
16:10	83.2	83.2	82.5	40	56.3	0	1	45	0.00	30.053 
16:15	83.4	83.4	82.3	37	54.4	0	2	45	0.00	30.048 
16:20	83.6	83.6	82.8	39	56.0	0	2	22	0.00	30.048 
16:25	83.8	83.8	82.7	37	54.7	0	2	22	0.00	30.048 
16:30	83.6	83.6	82.9	40	56.7	0	1	22	0.00	30.040 
16:35	83.6	83.6	83.2	42	58.0	0	2	22	0.00	30.040 
16:40	83.6	83.6	83.2	42	58.0	1	2	338	0.00	30.040 
16:45	83.6	83.6	83.0	41	57.4	0	2	338	0.00	30.035 
16:50	83.6	83.6	82.9	40	56.7	1	3	338	0.00	30.035 
16:55	83.6	83.6	82.8	39	56.0	0	2	338	0.00	30.035 
17:00	83.8	83.8	82.9	39	56.2	0	2	0	0.00	30.031 
17:05	84.0	84.0	83.0	38	55.6	0	3	0	0.00	30.031 
17:10	84.0	84.0	82.7	36	54.1	0	2	338	0.00	30.031 
17:15	84.3	84.3	82.9	35	53.6	0	1	338	0.00	30.030 
17:20	84.3	84.3	83.4	39	56.6	0	2	338	0.00	30.030 
17:25	84.3	84.3	82.7	34	52.8	0	2	338	0.00	30.030 
17:30	84.3	84.3	83.0	36	54.4	0	2	338	0.00	30.027 
17:35	84.1	84.1	82.7	35	53.5	0	1	45	0.00	30.027 
17:40	84.3	84.3	83.1	37	55.2	0	2	0	0.00	30.027 
17:45	84.1	84.1	82.7	35	53.5	1	3	292	0.00	30.022 
17:50	84.0	84.0	82.7	36	54.1	0	3	292	0.00	30.022 
17:55	84.0	84.0	83.1	39	56.3	0	1	292	0.00	30.022 
18:00	83.4	83.4	82.3	37	54.4	0	1	292	0.00	30.019 
18:05	83.2	83.2	82.0	36	53.4	0	1	292	0.00	30.019 
18:10	83.0	83.0	81.7	35	52.5	1	3	292	0.00	30.019 
18:15	82.8	82.8	81.8	37	53.8	0	2	292	0.00	30.016 
18:20	82.4	82.4	81.8	40	55.6	0	1	292	0.00	30.016 
18:25	82.2	82.2	81.1	35	51.8	0	2	292	0.00	30.016 
18:30	82.0	82.0	81.3	39	54.6	0	1	292	0.00	30.018 
18:35	81.8	81.8	81.3	40	55.1	0	1	292	0.00	30.018 
18:40	81.6	81.6	81.1	40	54.9	0	1	0	0.00	30.018 
18:45	81.6	81.6	81.2	41	55.6	0	1	22	0.00	30.015 
18:50	81.8	81.8	81.4	41	55.8	0	1	0	0.00	30.015 
18:55	81.8	81.8	81.6	43	57.1	0	2	0	0.00	30.015 
19:00	81.8	81.8	81.5	42	56.4	1	4	0	0.00	30.008 
19:05	81.6	81.6	81.3	42	56.3	0	3	270	0.00	30.008 
19:10	81.4	81.4	81.3	43	56.7	0	1	315	0.00	30.008 
19:15	81.2	81.2	81.1	43	56.5	0	2	315	0.00	29.999 
19:20	81.1	81.1	81.3	45	57.7	0	2	292	0.00	29.999 
19:25	80.9	80.9	81.1	45	57.5	0	1	292	0.00	29.999 
19:30	80.7	80.7	81.0	46	58.0	0	0	---	0.00	29.999 
19:35	80.5	80.5	80.9	47	58.4	0	0	---	0.00	29.999 
19:40	80.5	80.5	81.0	48	59.0	0	0	---	0.00	29.999 
19:45	80.5	80.5	80.8	46	57.8	0	2	292	0.00	29.996 
19:50	80.3	80.3	80.8	47	58.2	0	1	292	0.00	29.996 
19:55	80.3	80.3	80.9	48	58.8	0	1	248	0.00	29.996 
20:00	79.9	79.9	80.4	47	57.8	0	1	225	0.00	29.986 
20:05	79.9	79.9	80.6	49	59.0	0	1	225	0.00	29.986 
20:10	79.8	79.8	80.5	48	58.3	0	1	225	0.00	29.986 
20:15	79.6	79.6	80.5	50	59.3	0	0	---	0.00	29.980 
20:20	79.4	79.4	80.3	50	59.1	0	0	---	0.00	29.980 
20:25	79.2	79.2	80.2	51	59.5	0	0	---	0.00	29.980 
20:30	78.8	78.8	79.9	51	59.1	0	0	---	0.00	29.983 
20:35	78.6	78.6	79.7	50	58.4	0	0	---	0.00	29.983 
20:40	78.5	78.5	79.7	52	59.4	0	0	---	0.00	29.983 
20:45	78.3	78.3	79.6	53	59.7	0	0	---	0.00	29.981 
20:50	77.9	77.9	79.3	53	59.4	0	0	---	0.00	29.981 
20:55	77.6	77.6	79.2	55	60.1	0	0	---	0.00	29.981 
21:00	77.2	77.2	78.9	56	60.3	0	0	---	0.00	29.977 
21:05	76.7	76.7	78.5	57	60.3	0	0	---	0.00	29.977 
21:10	76.3	76.3	78.2	59	60.9	0	0	---	0.00	29.977 
21:15	75.8	75.8	77.9	59	60.4	0	0	---	0.00	29.976 
21:20	75.4	75.4	77.6	60	60.5	0	0	---	0.00	29.976 
21:25	74.9	74.9	74.9	61	60.5	0	0	---	0.00	29.976 
21:30	74.4	74.4	74.4	62	60.5	0	0	---	0.00	29.967 
21:35	74.0	74.0	74.0	63	60.6	0	0	---	0.00	29.967 
21:40	73.5	73.5	73.5	64	60.6	0	0	---	0.00	29.967 
21:45	73.0	73.0	73.0	64	60.1	0	0	---	0.00	29.968 
21:50	72.7	72.7	72.7	66	60.7	0	0	---	0.00	29.968 
21:55	72.5	72.5	72.5	68	61.3	0	0	---	0.00	29.968 
22:00	72.1	72.1	72.1	68	60.9	0	0	---	0.00	29.970 
22:05	71.8	71.8	71.8	69	61.1	0	0	---	0.00	29.970 
22:10	71.5	71.5	71.5	70	61.2	0	0	---	0.00	29.970 
22:15	71.1	71.1	71.1	71	61.2	0	0	---	0.00	29.971 
22:20	70.9	70.9	70.9	71	61.0	0	0	---	0.00	29.971 
22:25	70.6	70.6	70.6	72	61.1	0	0	---	0.00	29.971 
22:30	70.4	70.4	70.4	73	61.3	0	0	---	0.00	29.973 
22:35	70.1	70.1	70.1	73	61.0	0	0	---	0.00	29.973 
22:40	69.9	69.9	69.9	74	61.2	0	0	---	0.00	29.973 
22:45	69.6	69.6	69.6	74	60.9	0	0	---	0.00	29.977 
22:50	69.4	69.4	69.4	75	61.1	0	0	---	0.00	29.977 
22:55	69.1	69.1	69.1	76	61.2	0	0	---	0.00	29.977 
23:00	68.9	68.9	68.9	76	61.0	0	0	---	0.00	29.982 
23:05	68.8	68.8	68.8	77	61.3	0	0	---	0.00	29.982 
23:10	68.6	68.6	68.6	77	61.1	0	0	---	0.00	29.982 
23:15	68.3	68.3	68.3	78	61.2	0	0	---	0.00	29.982 
23:20	68.1	68.1	68.1	79	61.3	0	0	---	0.00	29.982 
23:25	67.8	67.8	67.8	80	61.4	0	0	---	0.00	29.982 
23:30	67.6	67.6	67.6	81	61.6	0	0	---	0.00	29.996 
23:35	67.6	67.6	67.6	81	61.6	0	0	---	0.00	29.996 
23:40	67.4	67.4	67.4	81	61.4	0	0	---	0.00	29.996 
23:45	67.3	67.3	67.3	82	61.6	0	0	---	0.00	29.989 
23:50	67.1	67.1	67.1	83	61.8	0	0	---	0.00	29.989 
23:55	66.9	66.9	66.9	83	61.6	0	0	---	0.00	29.989 

CoCoRaHS
IN-AL-39
A2 Web Hosting
Creative Commons License
GoDaddy
search engine by freefind advanced

loaded 2018-11-14 04:02:42 • last modified 2010-11-18 10:43:29
Privacy PolicyDisclaimer
• wx.awcolley.com is powered by PmWiki v.2002016 •
• all content (unless otherwise noted) © 2018 A W Colley